Flight Track Log - Related Links

Times and Time Zones

All times are in EDT time to prevent confusion due to time zone crossing. See the UAL3272 flight status page for this flight to view local times or setup timezone preferences in your user account.


Time Position Orientation Groundspeed Altitude Reporting Facility
EDT Latitude Longitude Course Direction KTS MPH feet Rate Location/Type
Thu 06:41:26 AM 43.6833 -79.6333 115° Southeast 280 322 500  Level Toronto Center
Thu 06:43:10 AM 43.6667 -79.5833 115° Southeast 10 12 500 98 Level Toronto Center
Thu 06:44:30 AM 43.6500 -79.5833 180° South 140 161 800 986 Climbing Toronto Center
Thu 06:45:30 AM 43.6167 -79.6333 227° Southwest 190 219 2,800 2,400 Climbing Toronto Center
Thu 06:46:30 AM 43.5667 -79.6833 216° Southwest 230 265 5,600 2,750 Climbing Toronto Center
Thu 06:47:30 AM 43.5000 -79.6833 180° South 260 299 8,300 2,450 Climbing Toronto Center
Thu 06:48:30 AM 43.4167 -79.6833 180° South 280 322 10,500 2,000 Climbing Toronto Center
Thu 06:49:30 AM 43.3500 -79.7500 216° Southwest 300 345 12,300 1,850 Climbing Toronto Center
Thu 06:50:30 AM 43.2833 -79.8000 209° Southwest 310 357 14,200 1,850 Climbing Toronto Center
Thu 06:51:30 AM 43.2000 -79.8667 210° Southwest 320 368 16,000 1,750 Climbing Toronto Center
Thu 06:52:30 AM 43.1167 -79.9333 210° Southwest 330 380 17,700 1,000 Climbing Toronto Center
Thu 06:53:30 AM 43.0333 -80.0000 210° Southwest 340 391 18,000 150 Climbing Toronto Center
Thu 06:54:30 AM 42.9500 -80.0667 210° Southwest 330 380 18,000  Level Toronto Center
Thu 06:55:30 AM 42.8667 -80.1167 204° Southwest 340 391 18,000  Level Toronto Center
Thu 06:56:07 AM 42.8408 -80.1697 236° Southwest 342 394 18,000  Level Cleveland Center
Thu 06:57:07 AM 42.7578 -80.2325 209° Southwest 342 394 18,000  Level Cleveland Center
Thu 06:58:07 AM 42.6808 -80.2950 211° Southwest 328 377 18,000  Level Cleveland Center
Thu 06:59:07 AM 42.5997 -80.3547 208° Southwest 328 377 18,000  Level Cleveland Center
Thu 07:00:07 AM 42.5206 -80.4169 210° Southwest 333 383 18,000  Level Cleveland Center
Thu 07:01:07 AM 42.4372 -80.4764 208° Southwest 333 383 18,000  Level Cleveland Center
Thu 07:02:07 AM 42.3478 -80.5439 209° Southwest 338 389 18,000  Level Cleveland Center
Thu 07:03:07 AM 42.2664 -80.6083 210° Southwest 333 383 18,000 -350 Level Cleveland Center
Thu 07:04:07 AM 42.1808 -80.6700 208° Southwest 339 390 17,300 -1,300 Descending Cleveland Center
Thu 07:05:07 AM 42.0953 -80.7369 210° Southwest 350 403 15,400 -1,650 Descending Cleveland Center
Thu 07:06:07 AM 42.0097 -80.8011 209° Southwest 356 410 14,000 -1,050 Descending Cleveland Center
Thu 07:07:07 AM 41.9325 -80.8594 209° Southwest 343 395 13,300 -1,200 Descending Cleveland Center
Thu 07:08:07 AM 41.8511 -80.9175 208° Southwest 337 388 11,600 -1,150 Descending Cleveland Center
Thu 07:09:07 AM 41.7739 -80.9758 209° Southwest 332 382 11,000 -300 Descending Cleveland Center
Thu 07:10:07 AM 41.7069 -81.0392 215° Southwest 319 367 11,000 -309 Level Cleveland Center
Thu 07:10:44 AM 41.6878 -81.1003 247° West 285 328 10,500 -800 Descending Cleveland Center
Thu 07:11:07 AM 41.6794 -81.1281 248° West 281 323 10,200 -500 Descending Cleveland Center
Thu 07:11:44 AM 41.6622 -81.2031 253° West 291 335 10,000 -200 Descending Cleveland Center
Thu 07:12:07 AM 41.6539 -81.2278 246° West 286 329 10,000 -269 Level Cleveland Center
Thu 07:12:51 AM 41.6344 -81.3083 252° West 279 321 9,700 -500 Descending Cleveland Center
Thu 07:13:07 AM 41.6303 -81.3250 252° West 286 329 9,500 -800 Descending Cleveland Center
Thu 07:13:51 AM 41.6089 -81.3969 248° West 253 291 8,900 -787 Descending Cleveland Center
Thu 07:14:08 AM 41.6067 -81.4133 260° West 271 312 8,700 -1,082 Descending Cleveland Center
Thu 07:14:52 AM 41.5875 -81.4881 251° West 255 293 7,800 -1,119 Descending Cleveland Center
Thu 07:15:07 AM 41.5811 -81.5047 243° Southwest 265 305 7,600 -1,180 Descending Cleveland Center
Thu 07:15:53 AM 41.5617 -81.5822 251° West 255 293 6,600 -1,339 Descending Cleveland Center
Thu 07:16:59 AM 41.5294 -81.6706 244° Southwest 239 275 5,100 -1,417 Descending Cleveland Center
Thu 07:18:00 AM 41.4872 -81.7361 229° Southwest 235 270 3,600 -1,500 Descending Cleveland Center
Thu 07:18:55 AM 41.4533 -81.7883 229° Southwest 187 215 2,200 -1,148 Descending Cleveland Center
Thu 07:19:55 AM 41.4300 -81.8239 229° Southwest 113 130 1,400 -800 Descending Cleveland Center
Thu 07:21:00 AM 41.4000 -81.8500 242° Southwest  Level FlightAware Approximate
Thu 07:28:00 AM 41.4094 -81.8547 242° Southwest  Level Estimated

Login

Don't have an account? Register now (free) for customized features, flight alerts, and more!